sensor_id;sensor_type;location;lat;lon;timestamp;pressure;altitude;pressure_sealevel;temperature;humidity
7824;BME280;3957;48.61947800;9.05303100;2023-04-26T00:00:04;96085.16;;;3.76;100.00
7824;BME280;3957;48.61947800;9.05303100;2023-04-26T00:01:09;96094.91;;;3.75;100.00
7824;BME280;3957;48.61947800;9.05303100;2023-04-26T00:02:11;96095.06;;;3.74;100.00
7824;BME280;3957;48.61947800;9.05303100;2023-04-26T00:03:13;96089.78;;;3.74;100.00
7824;BME280;3957;48.61947800;9.05303100;2023-04-26T00:04:15;96089.31;;;3.79;100.00
7824;BME280;3957;48.61947800;9.05303100;2023-04-26T00:05:17;96088.31;;;3.80;100.00
7824;BME280;3957;48.61947800;9.05303100;2023-04-26T00:06:20;96090.78;;;3.73;100.00
7824;BME280;3957;48.61947800;9.05303100;2023-04-26T00:07:22;96081.34;;;3.70;100.00
7824;BME280;3957;48.61947800;9.05303100;2023-04-26T00:08:25;96084.28;;;3.67;100.00
7824;BME280;3957;48.61947800;9.05303100;2023-04-26T00:09:26;96081.97;;;3.64;100.00
7824;BME280;3957;48.61947800;9.05303100;2023-04-26T00:10:28;96088.94;;;3.65;100.00
7824;BME280;3957;48.61947800;9.05303100;2023-04-26T00:11:30;96081.97;;;3.64;100.00
7824;BME280;3957;48.61947800;9.05303100;2023-04-26T00:12:31;96079.34;;;3.64;100.00
7824;BME280;3957;48.61947800;9.05303100;2023-04-26T00:13:33;96079.16;;;3.66;100.00
7824;BME280;3957;48.61947800;9.05303100;2023-04-26T00:14:34;96078.19;;;3.67;100.00
7824;BME280;3957;48.61947800;9.05303100;2023-04-26T00:15:36;96078.03;;;3.68;100.00
7824;BME280;3957;48.61947800;9.05303100;2023-04-26T00:16:37;96077.03;;;3.69;100.00
7824;BME280;3957;48.61947800;9.05303100;2023-04-26T00:17:39;96079.53;;;3.71;100.00
7824;BME280;3957;48.61947800;9.05303100;2023-04-26T00:18:41;96078.88;;;3.69;100.00
7824;BME280;3957;48.61947800;9.05303100;2023-04-26T00:19:43;96075.72;;;3.65;100.00
7824;BME280;3957;48.61947800;9.05303100;2023-04-26T00:20:45;96080.84;;;3.67;100.00
7824;BME280;3957;48.61947800;9.05303100;2023-04-26T00:21:47;96073.06;;;3.65;100.00
7824;BME280;3957;48.61947800;9.05303100;2023-04-26T00:22:48;96083.97;;;3.62;100.00
7824;BME280;3957;48.61947800;9.05303100;2023-04-26T00:23:50;96080.81;;;3.58;100.00
7824;BME280;3957;48.61947800;9.05303100;2023-04-26T00:24:52;96076.00;;;3.54;100.00
7824;BME280;3957;48.61947800;9.05303100;2023-04-26T00:25:55;96081.47;;;3.52;100.00
7824;BME280;3957;48.61947800;9.05303100;2023-04-26T00:26:57;96080.44;;;3.53;100.00
7824;BME280;3957;48.61947800;9.05303100;2023-04-26T00:27:59;96079.47;;;3.54;100.00
7824;BME280;3957;48.61947800;9.05303100;2023-04-26T00:29:01;96081.75;;;3.49;100.00
7824;BME280;3957;48.61947800;9.05303100;2023-04-26T00:30:04;96077.13;;;3.43;100.00
7824;BME280;3957;48.61947800;9.05303100;2023-04-26T00:31:06;96081.44;;;3.44;100.00
7824;BME280;3957;48.61947800;9.05303100;2023-04-26T00:32:08;96076.31;;;3.43;100.00
7824;BME280;3957;48.61947800;9.05303100;2023-04-26T00:33:09;96076.97;;;3.45;100.00
7824;BME280;3957;48.61947800;9.05303100;2023-04-26T00:34:11;96076.78;;;3.46;100.00
7824;BME280;3957;48.61947800;9.05303100;2023-04-26T00:35:13;96074.16;;;3.46;100.00
7824;BME280;3957;48.61947800;9.05303100;2023-04-26T00:36:14;96075.66;;;3.49;100.00
7824;BME280;3957;48.61947800;9.05303100;2023-04-26T00:37:19;96085.09;;;3.51;100.00
7824;BME280;3957;48.61947800;9.05303100;2023-04-26T00:38:21;96078.81;;;3.52;100.00
7824;BME280;3957;48.61947800;9.05303100;2023-04-26T00:39:24;96084.59;;;3.56;100.00
7824;BME280;3957;48.61947800;9.05303100;2023-04-26T00:40:26;96074.34;;;3.53;100.00
7824;BME280;3957;48.61947800;9.05303100;2023-04-26T00:41:28;96086.44;;;3.55;100.00
7824;BME280;3957;48.61947800;9.05303100;2023-04-26T00:42:29;96083.63;;;3.57;100.00
7824;BME280;3957;48.61947800;9.05303100;2023-04-26T00:43:31;96086.59;;;3.54;100.00
7824;BME280;3957;48.61947800;9.05303100;2023-04-26T00:44:33;96085.91;;;3.52;100.00
7824;BME280;3957;48.61947800;9.05303100;2023-04-26T00:45:34;96081.44;;;3.44;100.00
7824;BME280;3957;48.61947800;9.05303100;2023-04-26T00:46:36;96081.88;;;3.39;100.00
7824;BME280;3957;48.61947800;9.05303100;2023-04-26T00:47:38;96088.19;;;3.38;100.00
7824;BME280;3957;48.61947800;9.05303100;2023-04-26T00:48:40;96079.06;;;3.41;100.00
7824;BME280;3957;48.61947800;9.05303100;2023-04-26T00:49:41;96084.06;;;3.44;100.00
7824;BME280;3957;48.61947800;9.05303100;2023-04-26T00:50:43;96082.09;;;3.46;100.00
7824;BME280;3957;48.61947800;9.05303100;2023-04-26T00:51:46;96081.72;;;3.41;100.00
7824;BME280;3957;48.61947800;9.05303100;2023-04-26T00:52:48;96095.97;;;3.40;100.00
7824;BME280;3957;48.61947800;9.05303100;2023-04-26T00:53:49;96090.66;;;3.40;100.00
7824;BME280;3957;48.61947800;9.05303100;2023-04-26T00:54:52;96086.88;;;3.43;100.00
7824;BME280;3957;48.61947800;9.05303100;2023-04-26T00:55:54;96085.72;;;3.45;100.00
7824;BME280;3957;48.61947800;9.05303100;2023-04-26T00:56:56;96083.06;;;3.45;100.00
7824;BME280;3957;48.61947800;9.05303100;2023-04-26T00:57:58;96083.91;;;3.46;100.00
7824;BME280;3957;48.61947800;9.05303100;2023-04-26T00:58:59;96076.78;;;3.46;100.00
7824;BME280;3957;48.61947800;9.05303100;2023-04-26T01:00:02;96088.22;;;3.47;100.00
7824;BME280;3957;48.61947800;9.05303100;2023-04-26T01:01:04;96078.28;;;3.49;100.00
7824;BME280;3957;48.61947800;9.05303100;2023-04-26T01:02:06;96086.91;;;3.51;100.00
7824;BME280;3957;48.61947800;9.05303100;2023-04-26T01:03:07;96088.06;;;3.48;100.00
7824;BME280;3957;48.61947800;9.05303100;2023-04-26T01:04:10;96099.94;;;3.44;100.00
7824;BME280;3957;48.61947800;9.05303100;2023-04-26T01:05:13;96095.28;;;3.38;100.00
7824;BME280;3957;48.61947800;9.05303100;2023-04-26T01:06:17;96099.06;;;3.35;100.00
7824;BME280;3957;48.61947800;9.05303100;2023-04-26T01:07:19;96095.41;;;3.28;100.00
7824;BME280;3957;48.61947800;9.05303100;2023-04-26T01:08:22;96102.84;;;3.25;100.00
7824;BME280;3957;48.61947800;9.05303100;2023-04-26T01:09:23;96095.56;;;3.27;100.00
7824;BME280;3957;48.61947800;9.05303100;2023-04-26T01:10:26;96097.88;;;3.30;100.00
7824;BME280;3957;48.61947800;9.05303100;2023-04-26T01:11:31;96103.00;;;3.31;100.00
7824;BME280;3957;48.61947800;9.05303100;2023-04-26T01:12:33;96099.22;;;3.34;100.00
7824;BME280;3957;48.61947800;9.05303100;2023-04-26T01:13:37;96097.72;;;3.31;100.00
7824;BME280;3957;48.61947800;9.05303100;2023-04-26T01:14:39;96098.56;;;3.32;100.00
7824;BME280;3957;48.61947800;9.05303100;2023-04-26T01:15:45;96097.44;;;3.34;100.00
7824;BME280;3957;48.61947800;9.05303100;2023-04-26T01:16:46;96095.59;;;3.35;100.00
7824;BME280;3957;48.61947800;9.05303100;2023-04-26T01:17:48;96096.25;;;3.37;100.00
7824;BME280;3957;48.61947800;9.05303100;2023-04-26T01:18:52;96093.47;;;3.38;100.00
7824;BME280;3957;48.61947800;9.05303100;2023-04-26T01:19:54;96092.47;;;3.39;100.00
7824;BME280;3957;48.61947800;9.05303100;2023-04-26T01:20:57;96091.66;;;3.39;100.00
7824;BME280;3957;48.61947800;9.05303100;2023-04-26T01:22:02;96090.84;;;3.38;100.00
7824;BME280;3957;48.61947800;9.05303100;2023-04-26T01:23:04;96082.38;;;3.35;100.00
7824;BME280;3957;48.61947800;9.05303100;2023-04-26T01:24:08;96083.69;;;3.31;100.00
7824;BME280;3957;48.61947800;9.05303100;2023-04-26T01:25:11;96082.19;;;3.28;100.00
7824;BME280;3957;48.61947800;9.05303100;2023-04-26T01:26:13;96083.47;;;3.24;100.00
7824;BME280;3957;48.61947800;9.05303100;2023-04-26T01:27:15;96080.00;;;3.23;100.00
7824;BME280;3957;48.61947800;9.05303100;2023-04-26T01:28:17;96075.88;;;3.21;100.00
7824;BME280;3957;48.61947800;9.05303100;2023-04-26T01:29:20;96080.59;;;3.09;100.00
7824;BME280;3957;48.61947800;9.05303100;2023-04-26T01:30:22;96086.84;;;3.00;100.00
7824;BME280;3957;48.61947800;9.05303100;2023-04-26T01:31:23;96086.47;;;2.95;100.00
7824;BME280;3957;48.61947800;9.05303100;2023-04-26T01:32:25;96086.94;;;2.90;100.00
7824;BME280;3957;48.61947800;9.05303100;2023-04-26T01:33:27;96091.00;;;2.84;100.00
7824;BME280;3957;48.61947800;9.05303100;2023-04-26T01:34:29;96092.03;;;2.83;100.00
7824;BME280;3957;48.61947800;9.05303100;2023-04-26T01:35:30;96093.53;;;2.86;100.00
7824;BME280;3957;48.61947800;9.05303100;2023-04-26T01:36:32;96095.31;;;2.85;100.00
7824;BME280;3957;48.61947800;9.05303100;2023-04-26T01:37:34;96091.88;;;2.85;100.00
7824;BME280;3957;48.61947800;9.05303100;2023-04-26T01:38:36;96094.34;;;2.86;100.00
7824;BME280;3957;48.61947800;9.05303100;2023-04-26T01:39:37;96101.28;;;2.87;100.00
7824;BME280;3957;48.61947800;9.05303100;2023-04-26T01:40:39;96093.53;;;2.86;100.00
7824;BME280;3957;48.61947800;9.05303100;2023-04-26T01:41:44;96096.47;;;2.83;100.00
7824;BME280;3957;48.61947800;9.05303100;2023-04-26T01:42:45;96093.97;;;2.81;100.00
7824;BME280;3957;48.61947800;9.05303100;2023-04-26T01:43:47;96093.97;;;2.81;100.00
7824;BME280;3957;48.61947800;9.05303100;2023-04-26T01:44:49;96089.38;;;2.83;100.00
7824;BME280;3957;48.61947800;9.05303100;2023-04-26T01:45:51;96095.31;;;2.85;100.00
7824;BME280;3957;48.61947800;9.05303100;2023-04-26T01:47:04;96089.22;;;2.85;100.00
7824;BME280;3957;48.61947800;9.05303100;2023-04-26T01:48:06;96083.47;;;2.89;100.00
7824;BME280;3957;48.61947800;9.05303100;2023-04-26T01:49:09;96083.47;;;2.89;100.00
7824;BME280;3957;48.61947800;9.05303100;2023-04-26T01:50:10;96091.75;;;2.95;100.00
7824;BME280;3957;48.61947800;9.05303100;2023-04-26T01:51:13;96090.25;;;2.92;100.00
7824;BME280;3957;48.61947800;9.05303100;2023-04-26T01:52:15;96090.25;;;2.92;100.00
7824;BME280;3957;48.61947800;9.05303100;2023-04-26T01:53:19;96076.22;;;2.92;100.00
7824;BME280;3957;48.61947800;9.05303100;2023-04-26T01:54:21;96084.31;;;2.90;100.00
7824;BME280;3957;48.61947800;9.05303100;2023-04-26T01:55:23;96081.13;;;2.86;100.00
7824;BME280;3957;48.61947800;9.05303100;2023-04-26T01:56:24;96078.50;;;2.86;100.00
7824;BME280;3957;48.61947800;9.05303100;2023-04-26T01:57:27;96082.28;;;2.84;100.00
7824;BME280;3957;48.61947800;9.05303100;2023-04-26T01:58:28;96084.09;;;2.83;100.00
7824;BME280;3957;48.61947800;9.05303100;2023-04-26T01:59:30;96081.44;;;2.83;100.00
7824;BME280;3957;48.61947800;9.05303100;2023-04-26T02:00:32;96083.94;;;2.85;100.00
7824;BME280;3957;48.61947800;9.05303100;2023-04-26T02:01:34;96080.38;;;2.76;100.00
7824;BME280;3957;48.61947800;9.05303100;2023-04-26T02:02:36;96078.75;;;2.75;100.00
7824;BME280;3957;48.61947800;9.05303100;2023-04-26T02:03:37;96082.06;;;2.77;100.00
7824;BME280;3957;48.61947800;9.05303100;2023-04-26T02:04:39;96080.75;;;2.81;100.00
7824;BME280;3957;48.61947800;9.05303100;2023-04-26T02:05:41;96081.44;;;2.83;100.00
7824;BME280;3957;48.61947800;9.05303100;2023-04-26T02:06:42;96077.47;;;2.79;100.00
7824;BME280;3957;48.61947800;9.05303100;2023-04-26T02:07:44;96080.25;;;2.78;100.00
7824;BME280;3957;48.61947800;9.05303100;2023-04-26T02:08:45;96082.75;;;2.79;100.00
7824;BME280;3957;48.61947800;9.05303100;2023-04-26T02:09:47;96082.44;;;2.82;100.00
7824;BME280;3957;48.61947800;9.05303100;2023-04-26T02:10:48;96087.56;;;2.84;100.00
7824;BME280;3957;48.61947800;9.05303100;2023-04-26T02:11:50;96082.44;;;2.82;100.00
7824;BME280;3957;48.61947800;9.05303100;2023-04-26T02:12:51;96083.41;;;2.81;100.00
7824;BME280;3957;48.61947800;9.05303100;2023-04-26T02:13:53;96077.47;;;2.79;100.00
7824;BME280;3957;48.61947800;9.05303100;2023-04-26T02:14:55;96076.78;;;2.77;100.00
7824;BME280;3957;48.61947800;9.05303100;2023-04-26T02:15:57;96079.25;;;2.79;100.00
7824;BME280;3957;48.61947800;9.05303100;2023-04-26T02:16:59;96078.44;;;2.78;100.00
7824;BME280;3957;48.61947800;9.05303100;2023-04-26T02:18:01;96078.75;;;2.75;100.00
7824;BME280;3957;48.61947800;9.05303100;2023-04-26T02:19:03;96079.72;;;2.74;100.00
7824;BME280;3957;48.61947800;9.05303100;2023-04-26T02:20:06;96073.84;;;2.62;100.00
7824;BME280;3957;48.61947800;9.05303100;2023-04-26T02:21:11;96081.72;;;2.54;100.00
7824;BME280;3957;48.61947800;9.05303100;2023-04-26T02:22:12;96085.22;;;2.54;100.00
7824;BME280;3957;48.61947800;9.05303100;2023-04-26T02:23:15;96073.66;;;2.55;100.00
7824;BME280;3957;48.61947800;9.05303100;2023-04-26T02:24:17;96075.47;;;2.55;100.00
7824;BME280;3957;48.61947800;9.05303100;2023-04-26T02:25:19;96076.44;;;2.54;100.00
7824;BME280;3957;48.61947800;9.05303100;2023-04-26T02:26:20;96075.47;;;2.55;100.00
7824;BME280;3957;48.61947800;9.05303100;2023-04-26T02:27:22;96069.53;;;2.53;100.00
7824;BME280;3957;48.61947800;9.05303100;2023-04-26T02:28:23;96068.72;;;2.61;100.00
7824;BME280;3957;48.61947800;9.05303100;2023-04-26T02:29:26;96071.03;;;2.55;100.00
7824;BME280;3957;48.61947800;9.05303100;2023-04-26T02:30:44;96073.47;;;2.49;100.00
7824;BME280;3957;48.61947800;9.05303100;2023-04-26T02:31:46;96071.94;;;2.46;100.00
7824;BME280;3957;48.61947800;9.05303100;2023-04-26T02:32:49;96075.03;;;2.42;100.00
7824;BME280;3957;48.61947800;9.05303100;2023-04-26T02:33:53;96075.72;;;2.44;100.00
7824;BME280;3957;48.61947800;9.05303100;2023-04-26T02:34:55;96078.19;;;2.45;100.00
7824;BME280;3957;48.61947800;9.05303100;2023-04-26T02:35:57;96080.69;;;2.47;100.00
7824;BME280;3957;48.61947800;9.05303100;2023-04-26T02:36:59;96089.81;;;2.52;100.00
7824;BME280;3957;48.61947800;9.05303100;2023-04-26T02:38:00;96095.56;;;2.48;100.00
7824;BME280;3957;48.61947800;9.05303100;2023-04-26T02:39:02;96090.28;;;2.48;100.00
7824;BME280;3957;48.61947800;9.05303100;2023-04-26T02:40:04;96095.41;;;2.49;100.00
7824;BME280;3957;48.61947800;9.05303100;2023-04-26T02:41:06;96094.59;;;2.49;100.00
7824;BME280;3957;48.61947800;9.05303100;2023-04-26T02:42:08;96096.75;;;2.53;100.00
7824;BME280;3957;48.61947800;9.05303100;2023-04-26T02:43:11;96100.22;;;2.54;100.00
7824;BME280;3957;48.61947800;9.05303100;2023-04-26T02:44:12;96098.47;;;2.63;100.00
7824;BME280;3957;48.61947800;9.05303100;2023-04-26T02:45:14;96092.50;;;2.61;100.00
7824;BME280;3957;48.61947800;9.05303100;2023-04-26T02:46:17;96094.88;;;2.64;100.00
7824;BME280;3957;48.61947800;9.05303100;2023-04-26T02:47:19;96089.28;;;2.67;100.00
7824;BME280;3957;48.61947800;9.05303100;2023-04-26T02:48:21;96090.25;;;2.66;100.00
7824;BME280;3957;48.61947800;9.05303100;2023-04-26T02:49:22;96092.06;;;2.65;100.00
7824;BME280;3957;48.61947800;9.05303100;2023-04-26T02:50:25;96086.09;;;2.63;100.00
7824;BME280;3957;48.61947800;9.05303100;2023-04-26T02:51:27;96092.34;;;2.62;100.00
7824;BME280;3957;48.61947800;9.05303100;2023-04-26T02:52:28;96091.69;;;2.60;100.00
7824;BME280;3957;48.61947800;9.05303100;2023-04-26T02:53:30;96091.22;;;2.65;100.00
7824;BME280;3957;48.61947800;9.05303100;2023-04-26T02:54:31;96090.41;;;2.64;100.00
7824;BME280;3957;48.61947800;9.05303100;2023-04-26T02:55:34;96087.44;;;2.67;100.00
7824;BME280;3957;48.61947800;9.05303100;2023-04-26T02:56:35;96092.56;;;2.69;100.00
7824;BME280;3957;48.61947800;9.05303100;2023-04-26T02:57:37;96092.63;;;2.77;100.00
7824;BME280;3957;48.61947800;9.05303100;2023-04-26T02:58:40;96095.22;;;2.69;100.00
7824;BME280;3957;48.61947800;9.05303100;2023-04-26T02:59:42;96087.44;;;2.67;100.00
7824;BME280;3957;48.61947800;9.05303100;2023-04-26T03:00:45;96087.59;;;2.66;100.00
7824;BME280;3957;48.61947800;9.05303100;2023-04-26T03:01:48;96096.50;;;2.65;100.00
7824;BME280;3957;48.61947800;9.05303100;2023-04-26T03:02:50;96087.75;;;2.64;100.00
7824;BME280;3957;48.61947800;9.05303100;2023-04-26T03:03:53;96088.56;;;2.65;100.00
7824;BME280;3957;48.61947800;9.05303100;2023-04-26T03:04:56;96082.69;;;2.71;100.00
7824;BME280;3957;48.61947800;9.05303100;2023-04-26T03:05:59;96091.59;;;2.70;100.00
7824;BME280;3957;48.61947800;9.05303100;2023-04-26T03:07:03;96089.44;;;2.65;100.00
7824;BME280;3957;48.61947800;9.05303100;2023-04-26T03:08:05;96090.88;;;2.60;100.00
7824;BME280;3957;48.61947800;9.05303100;2023-04-26T03:09:07;96086.72;;;2.57;100.00
7824;BME280;3957;48.61947800;9.05303100;2023-04-26T03:10:09;96085.72;;;2.58;100.00
7824;BME280;3957;48.61947800;9.05303100;2023-04-26T03:11:12;96087.53;;;2.58;100.00
7824;BME280;3957;48.61947800;9.05303100;2023-04-26T03:12:14;96084.03;;;2.49;100.00
7824;BME280;3957;48.61947800;9.05303100;2023-04-26T03:13:15;96078.66;;;2.41;100.00
7824;BME280;3957;48.61947800;9.05303100;2023-04-26T03:14:17;96084.94;;;2.40;100.00
7824;BME280;3957;48.61947800;9.05303100;2023-04-26T03:15:19;96076.03;;;2.41;100.00
7824;BME280;3957;48.61947800;9.05303100;2023-04-26T03:16:21;96083.78;;;2.42;100.00
7824;BME280;3957;48.61947800;9.05303100;2023-04-26T03:17:23;96093.50;;;2.42;100.00
7824;BME280;3957;48.61947800;9.05303100;2023-04-26T03:18:25;96084.94;;;2.40;100.00
7824;BME280;3957;48.61947800;9.05303100;2023-04-26T03:19:27;96092.16;;;2.37;100.00
7824;BME280;3957;48.61947800;9.05303100;2023-04-26T03:20:29;96085.09;;;2.38;100.00
7824;BME280;3957;48.61947800;9.05303100;2023-04-26T03:21:31;96086.06;;;2.37;100.00
7824;BME280;3957;48.61947800;9.05303100;2023-04-26T03:22:33;96076.28;;;2.29;100.00
7824;BME280;3957;48.61947800;9.05303100;2023-04-26T03:23:35;96081.69;;;2.28;100.00
7824;BME280;3957;48.61947800;9.05303100;2023-04-26T03:24:37;96084.78;;;2.23;100.00
7824;BME280;3957;48.61947800;9.05303100;2023-04-26T03:25:38;96084.13;;;2.21;100.00
7824;BME280;3957;48.61947800;9.05303100;2023-04-26T03:26:40;96077.19;;;2.20;100.00
7824;BME280;3957;48.61947800;9.05303100;2023-04-26T03:27:41;96079.13;;;2.18;100.00
7824;BME280;3957;48.61947800;9.05303100;2023-04-26T03:28:43;96083.75;;;2.16;100.00
7824;BME280;3957;48.61947800;9.05303100;2023-04-26T03:29:45;96089.19;;;2.14;100.00
7824;BME280;3957;48.61947800;9.05303100;2023-04-26T03:30:47;96081.53;;;2.11;100.00
7824;BME280;3957;48.61947800;9.05303100;2023-04-26T03:31:50;96081.53;;;2.11;100.00
7824;BME280;3957;48.61947800;9.05303100;2023-04-26T03:32:52;96082.69;;;2.09;100.00
7824;BME280;3957;48.61947800;9.05303100;2023-04-26T03:33:54;96078.69;;;2.04;100.00
7824;BME280;3957;48.61947800;9.05303100;2023-04-26T03:34:55;96074.53;;;2.02;100.00
7824;BME280;3957;48.61947800;9.05303100;2023-04-26T03:35:57;96072.19;;;1.99;100.00
7824;BME280;3957;48.61947800;9.05303100;2023-04-26T03:36:59;96076.81;;;1.97;100.00
7824;BME280;3957;48.61947800;9.05303100;2023-04-26T03:38:00;96079.28;;;1.98;100.00
7824;BME280;3957;48.61947800;9.05303100;2023-04-26T03:39:02;96076.13;;;1.95;100.00
7824;BME280;3957;48.61947800;9.05303100;2023-04-26T03:40:07;96076.88;;;1.87;100.00
7824;BME280;3957;48.61947800;9.05303100;2023-04-26T03:41:09;96072.88;;;1.83;100.00
7824;BME280;3957;48.61947800;9.05303100;2023-04-26T03:42:11;96074.00;;;1.80;100.00
7824;BME280;3957;48.61947800;9.05303100;2023-04-26T03:43:13;96069.84;;;1.78;100.00
7824;BME280;3957;48.61947800;9.05303100;2023-04-26T03:44:14;96077.25;;;1.74;100.00
7824;BME280;3957;48.61947800;9.05303100;2023-04-26T03:45:16;96076.84;;;1.69;100.00
7824;BME280;3957;48.61947800;9.05303100;2023-04-26T03:46:18;96067.44;;;1.66;100.00
7824;BME280;3957;48.61947800;9.05303100;2023-04-26T03:47:21;96065.75;;;1.65;100.00
7824;BME280;3957;48.61947800;9.05303100;2023-04-26T03:48:25;96074.13;;;1.61;100.00
7824;BME280;3957;48.61947800;9.05303100;2023-04-26T03:49:27;96071.78;;;1.58;100.00
7824;BME280;3957;48.61947800;9.05303100;2023-04-26T03:50:29;96069.59;;;1.53;100.00
7824;BME280;3957;48.61947800;9.05303100;2023-04-26T03:51:31;96074.63;;;1.46;100.00
7824;BME280;3957;48.61947800;9.05303100;2023-04-26T03:52:33;96075.06;;;1.42;100.00
7824;BME280;3957;48.61947800;9.05303100;2023-04-26T03:53:36;96072.34;;;1.33;100.00
7824;BME280;3957;48.61947800;9.05303100;2023-04-26T03:54:37;96081.22;;;1.32;100.00
7824;BME280;3957;48.61947800;9.05303100;2023-04-26T03:55:39;96075.56;;;1.27;100.00
7824;BME280;3957;48.61947800;9.05303100;2023-04-26T03:56:40;96066.81;;;1.27;100.00
7824;BME280;3957;48.61947800;9.05303100;2023-04-26T03:57:42;96080.28;;;1.24;100.00
7824;BME280;3957;48.61947800;9.05303100;2023-04-26T03:58:45;96073.66;;;1.19;100.00
7824;BME280;3957;48.61947800;9.05303100;2023-04-26T03:59:46;96080.19;;;1.15;100.00
7824;BME280;3957;48.61947800;9.05303100;2023-04-26T04:00:48;96076.28;;;1.19;100.00
7824;BME280;3957;48.61947800;9.05303100;2023-04-26T04:01:49;96079.38;;;1.15;100.00
7824;BME280;3957;48.61947800;9.05303100;2023-04-26T04:02:51;96087.13;;;1.16;100.00
7824;BME280;3957;48.61947800;9.05303100;2023-04-26T04:03:58;96085.16;;;1.18;100.00
7824;BME280;3957;48.61947800;9.05303100;2023-04-26T04:05:00;96078.78;;;1.21;100.00
7824;BME280;3957;48.61947800;9.05303100;2023-04-26T04:06:02;96083.91;;;1.23;100.00
7824;BME280;3957;48.61947800;9.05303100;2023-04-26T04:07:03;96081.56;;;1.19;100.00
7824;BME280;3957;48.61947800;9.05303100;2023-04-26T04:08:06;96082.53;;;1.18;100.00
7824;BME280;3957;48.61947800;9.05303100;2023-04-26T04:09:08;96085.16;;;1.18;100.00
7824;BME280;3957;48.61947800;9.05303100;2023-04-26T04:10:10;96080.59;;;1.21;100.00
7824;BME280;3957;48.61947800;9.05303100;2023-04-26T04:11:13;96082.09;;;1.23;100.00
7824;BME280;3957;48.61947800;9.05303100;2023-04-26T04:12:19;96088.19;;;1.24;100.00
7824;BME280;3957;48.61947800;9.05303100;2023-04-26T04:13:21;96084.75;;;1.23;100.00
7824;BME280;3957;48.61947800;9.05303100;2023-04-26T04:14:23;96081.25;;;1.23;100.00
7824;BME280;3957;48.61947800;9.05303100;2023-04-26T04:15:24;96094.59;;;1.21;100.00
7824;BME280;3957;48.61947800;9.05303100;2023-04-26T04:16:28;96079.88;;;1.18;100.00
7824;BME280;3957;48.61947800;9.05303100;2023-04-26T04:17:30;96085.00;;;1.20;100.00
7824;BME280;3957;48.61947800;9.05303100;2023-04-26T04:18:32;96079.75;;;1.20;100.00
7824;BME280;3957;48.61947800;9.05303100;2023-04-26T04:19:34;96084.75;;;1.23;100.00
7824;BME280;3957;48.61947800;9.05303100;2023-04-26T04:20:36;96082.94;;;1.24;100.00
7824;BME280;3957;48.61947800;9.05303100;2023-04-26T04:21:37;96076.69;;;1.25;100.00
7824;BME280;3957;48.61947800;9.05303100;2023-04-26T04:22:41;96076.25;;;1.29;100.00
7824;BME280;3957;48.61947800;9.05303100;2023-04-26T04:23:43;96074.31;;;1.31;100.00
7824;BME280;3957;48.61947800;9.05303100;2023-04-26T04:24:46;96077.31;;;1.36;100.00
7824;BME280;3957;48.61947800;9.05303100;2023-04-26T04:25:47;96080.88;;;1.45;100.00
7824;BME280;3957;48.61947800;9.05303100;2023-04-26T04:26:49;96089.03;;;1.52;100.00
7824;BME280;3957;48.61947800;9.05303100;2023-04-26T04:27:51;96074.44;;;1.58;100.00
7824;BME280;3957;48.61947800;9.05303100;2023-04-26T04:28:53;96078.72;;;1.59;100.00
7824;BME280;3957;48.61947800;9.05303100;2023-04-26T04:29:55;96081.44;;;1.67;100.00
7824;BME280;3957;48.61947800;9.05303100;2023-04-26T04:30:57;96092.22;;;1.74;100.00
7824;BME280;3957;48.61947800;9.05303100;2023-04-26T04:32:01;96091.81;;;1.78;100.00
7824;BME280;3957;48.61947800;9.05303100;2023-04-26T04:33:03;96087.88;;;1.82;100.00
7824;BME280;3957;48.61947800;9.05303100;2023-04-26T04:34:07;96094.53;;;1.86;100.00
7824;BME280;3957;48.61947800;9.05303100;2023-04-26T04:35:09;96092.56;;;1.89;100.00
7824;BME280;3957;48.61947800;9.05303100;2023-04-26T04:36:12;96103.91;;;1.89;100.00
7824;BME280;3957;48.61947800;9.05303100;2023-04-26T04:37:13;96094.06;;;1.91;100.00
7824;BME280;3957;48.61947800;9.05303100;2023-04-26T04:38:15;96096.56;;;1.93;100.00
7824;BME280;3957;48.61947800;9.05303100;2023-04-26T04:39:17;96102.53;;;1.95;100.00
7824;BME280;3957;48.61947800;9.05303100;2023-04-26T04:40:19;96099.03;;;1.94;100.00
7824;BME280;3957;48.61947800;9.05303100;2023-04-26T04:41:22;96100.41;;;1.98;100.00
7824;BME280;3957;48.61947800;9.05303100;2023-04-26T04:42:24;96098.56;;;1.99;100.00
7824;BME280;3957;48.61947800;9.05303100;2023-04-26T04:43:30;96097.44;;;2.01;100.00
7824;BME280;3957;48.61947800;9.05303100;2023-04-26T04:44:31;96089.91;;;2.07;100.00
7824;BME280;3957;48.61947800;9.05303100;2023-04-26T04:45:34;96097.38;;;2.11;100.00
7824;BME280;3957;48.61947800;9.05303100;2023-04-26T04:46:36;96088.06;;;2.17;100.00
7824;BME280;3957;48.61947800;9.05303100;2023-04-26T04:47:39;96089.41;;;2.21;100.00
7824;BME280;3957;48.61947800;9.05303100;2023-04-26T04:48:40;96085.31;;;2.27;100.00
7824;BME280;3957;48.61947800;9.05303100;2023-04-26T04:49:42;96091.13;;;2.30;100.00
7824;BME280;3957;48.61947800;9.05303100;2023-04-26T04:50:44;96088.84;;;2.35;100.00
7824;BME280;3957;48.61947800;9.05303100;2023-04-26T04:51:45;96087.41;;;2.41;100.00
7824;BME280;3957;48.61947800;9.05303100;2023-04-26T04:52:47;96092.75;;;2.49;100.00
7824;BME280;3957;48.61947800;9.05303100;2023-04-26T04:53:49;96098.50;;;2.45;100.00
7824;BME280;3957;48.61947800;9.05303100;2023-04-26T04:54:51;96087.56;;;2.40;100.00
7824;BME280;3957;48.61947800;9.05303100;2023-04-26T04:55:53;96097.66;;;2.44;100.00
7824;BME280;3957;48.61947800;9.05303100;2023-04-26T04:56:54;96091.78;;;2.50;100.00